Terminal Aerodrome Forecast
Issued by NWS

Current Version | Previous Version | Text Only | Print | Product List | Glossary On
Versions: 1 2 3 4 5 6 7 8 9 10 11 12 13 14 15 16 17 18 19 20 21 22
710
FTUS45 KGJT 141734
TAFRIL
TAF
KRIL 141734Z 1418/1518 36003KT P6SM BKN110 OVC150
     FM142200 07005KT P6SM VCSH SCT050 BKN080 WS020/29030KT
     FM150400 VRB03KT P6SM VCSH BKN030 OVC050
     FM151200 VRB03KT P6SM SCT030 OVC070=

USA.gov is the U.S. government's official web portal to all federal, state and local government web resources and services.